Anch, Alaska
Current Conditions -  °F | °C
As of 6:58 PM on Sunday 19 Oct 2014 (Local Time) from PAED Reporting Station
Overcast Overcast  
Wind Chill: 38°   Ceiling: 10000
Heat Index: 38°   Visibility: 10mi
Dew Point: 26°   Wind: 0mph
Humidity: 63%   Direction: NA
Pressure: 29.05"   Gusts: NA
Location:  61.2265°N, 149.62°W
Report Text: PAED 200258Z 00000KT 10SM OVC100 03/M03 A2905 RMK AO2A SLP835 T00341031 57018
Loading
Personal Weather Stations






























Interactive Weather Map
Tropical Storm Tracking
New forecast layout! Learn more

10-Day Weather Forecast

Advertisements
Track Severe Weather on mobile